Time;durP1;ratioP1;P1;durP2;ratioP2;P2;SDS_P1;SDS_P2;PMS_P1;PMS_P2;Temp;Humidity;BMP_temperature;BMP_pressure;BME280_temperature;BME280_humidity;BME280_pressure;Samples;Min_cycle;Max_cycle;Signal;HPM_P1;HPM_P2
2021/11/21 00:01:07;;;;;;;3.00;2.80;;;;;;;;;;4935746;29;20073;-77
2021/11/21 00:03:33;;;;;;;2.63;2.45;;;;;;;;;;4932970;29;20085;-77
2021/11/21 00:05:58;;;;;;;3.55;2.92;;;;;;;;;;4944423;29;20075;-78
2021/11/21 00:08:25;;;;;;;2.67;2.50;;;;;;;;;;4954627;28;20559;-77
2021/11/21 00:10:50;;;;;;;2.60;2.50;;;;;;;;;;4953846;29;20050;-76
2021/11/21 00:13:16;;;;;;;4.82;2.50;;;;;;;;;;4954557;29;20039;-77
2021/11/21 00:15:42;;;;;;;4.55;2.55;;;;;;;;;;4954776;29;20054;-76
2021/11/21 00:18:08;;;;;;;2.75;2.65;;;;;;;;;;4936394;29;20047;-77
2021/11/21 00:20:35;;;;;;;2.53;2.42;;;;;;;;;;4954142;29;20051;-77
2021/11/21 00:23:00;;;;;;;3.60;3.10;;;;;;;;;;4954684;29;20529;-76
2021/11/21 00:25:26;;;;;;;2.70;2.50;;;;;;;;;;4951631;29;20058;-76
2021/11/21 00:27:52;;;;;;;2.28;2.20;;;;;;;;;;4954282;28;20078;-77
2021/11/21 00:30:18;;;;;;;3.67;2.70;;;;;;;;;;4954271;29;20054;-77
2021/11/21 00:32:43;;;;;;;8.23;3.28;;;;;;;;;;4953700;29;20054;-77
2021/11/21 00:35:09;;;;;;;2.50;2.40;;;;;;;;;;4954170;29;20051;-76
2021/11/21 00:37:34;;;;;;;2.35;2.25;;;;;;;;;;4936013;28;20497;-77
2021/11/21 00:40:00;;;;;;;2.55;2.35;;;;;;;;;;4953799;29;20055;-75
2021/11/21 00:42:26;;;;;;;2.13;2.10;;;;;;;;;;4954071;29;20149;-77
2021/11/21 00:44:52;;;;;;;2.33;2.25;;;;;;;;;;4954064;29;20051;-77
2021/11/21 00:47:18;;;;;;;2.03;2.00;;;;;;;;;;4951836;28;20047;-78
2021/11/21 00:49:43;;;;;;;2.10;2.00;;;;;;;;;;4937179;29;20051;-76
2021/11/21 00:52:09;;;;;;;2.28;2.10;;;;;;;;;;4952709;29;20098;-76
2021/11/21 00:57:27;;;;;;;2.38;2.28;;;;;;;;;;4924104;28;20049;-76
2021/11/21 00:59:53;;;;;;;2.47;2.38;;;;;;;;;;4953767;29;20035;-77
2021/11/21 01:02:20;;;;;;;3.20;3.00;;;;;;;;;;4952244;29;20043;-78
2021/11/21 01:04:46;;;;;;;2.38;2.28;;;;;;;;;;4952800;29;20039;-77
2021/11/21 01:07:12;;;;;;;2.50;2.40;;;;;;;;;;4932943;29;20051;-76
2021/11/21 01:09:39;;;;;;;2.55;2.35;;;;;;;;;;4930103;29;20422;-76
2021/11/21 01:12:06;;;;;;;2.33;2.22;;;;;;;;;;4933653;29;20039;-76
2021/11/21 01:14:31;;;;;;;2.55;2.25;;;;;;;;;;4933812;29;20048;-76
2021/11/21 01:16:57;;;;;;;2.65;2.45;;;;;;;;;;4934163;29;20050;-76
2021/11/21 01:19:22;;;;;;;3.92;2.38;;;;;;;;;;4932468;29;20047;-77
2021/11/21 01:21:49;;;;;;;2.30;2.15;;;;;;;;;;4933789;29;20115;-76
2021/11/21 01:24:15;;;;;;;5.85;2.60;;;;;;;;;;4933341;29;20160;-77
2021/11/21 01:26:40;;;;;;;2.47;2.38;;;;;;;;;;4933815;29;20202;-77
2021/11/21 01:29:06;;;;;;;2.47;2.38;;;;;;;;;;4933368;29;20063;-75
2021/11/21 01:31:32;;;;;;;2.60;2.08;;;;;;;;;;4930442;29;20040;-76
2021/11/21 01:33:57;;;;;;;3.15;3.03;;;;;;;;;;4934149;29;20576;-77
2021/11/21 01:36:23;;;;;;;3.45;3.25;;;;;;;;;;4933262;29;20417;-77
2021/11/21 01:38:49;;;;;;;1.70;1.60;;;;;;;;;;4916502;29;20405;-77
2021/11/21 01:41:15;;;;;;;2.67;2.58;;;;;;;;;;4933719;29;20051;-77
2021/11/21 01:43:41;;;;;;;3.08;2.60;;;;;;;;;;4932775;29;20047;-76
2021/11/21 01:46:07;;;;;;;2.55;2.35;;;;;;;;;;4932498;29;20051;-77
2021/11/21 01:48:34;;;;;;;2.53;2.42;;;;;;;;;;4933733;29;20071;-77
2021/11/21 01:51:03;;;;;;;3.05;2.80;;;;;;;;;;4933133;29;20498;-77
2021/11/21 01:53:29;;;;;;;2.65;2.45;;;;;;;;;;4930953;29;20047;-75
2021/11/21 01:55:56;;;;;;;3.60;3.42;;;;;;;;;;4933412;29;20055;-76
2021/11/21 01:58:21;;;;;;;2.45;2.35;;;;;;;;;;4932516;29;20036;-76
2021/11/21 02:00:48;;;;;;;2.83;2.70;;;;;;;;;;4933698;29;20048;-76
2021/11/21 02:03:14;;;;;;;2.58;2.47;;;;;;;;;;4933799;29;20529;-77
2021/11/21 02:05:40;;;;;;;5.90;2.38;;;;;;;;;;4939520;29;20043;-76
2021/11/21 02:08:08;;;;;;;2.53;2.38;;;;;;;;;;4952106;28;20082;-76
2021/11/21 02:10:36;;;;;;;2.83;2.70;;;;;;;;;;4935488;29;20043;-76
2021/11/21 02:13:05;;;;;;;2.67;2.53;;;;;;;;;;4952349;29;20086;-75
2021/11/21 02:15:31;;;;;;;2.65;2.55;;;;;;;;;;4933266;29;20624;-76
2021/11/21 02:17:57;;;;;;;2.45;2.35;;;;;;;;;;4952482;28;20393;-75
2021/11/21 02:20:42;;;;;;;2.58;2.47;;;;;;;;;;4952533;29;20055;-76
2021/11/21 02:23:09;;;;;;;4.07;3.88;;;;;;;;;;4952247;29;20473;-76
2021/11/21 02:25:36;;;;;;;2.58;2.47;;;;;;;;;;4950765;29;20131;-76
2021/11/21 02:28:03;;;;;;;2.90;2.80;;;;;;;;;;4952180;28;20074;-76
2021/11/21 02:30:29;;;;;;;2.22;2.15;;;;;;;;;;4935264;29;20058;-76
2021/11/21 02:32:55;;;;;;;2.22;2.13;;;;;;;;;;4934591;29;20038;-76
2021/11/21 02:35:21;;;;;;;2.13;2.05;;;;;;;;;;4949342;29;20039;-75
2021/11/21 02:37:47;;;;;;;2.92;2.72;;;;;;;;;;4951627;28;20053;-76
2021/11/21 02:40:15;;;;;;;4.75;2.97;;;;;;;;;;4952550;29;20047;-75
2021/11/21 02:42:40;;;;;;;2.70;2.50;;;;;;;;;;4952362;29;20048;-76
2021/11/21 02:45:10;;;;;;;2.47;2.38;;;;;;;;;;4951043;29;20086;-75
2021/11/21 02:47:35;;;;;;;2.60;2.50;;;;;;;;;;4952349;28;20134;-75
2021/11/21 02:50:05;;;;;;;2.30;2.20;;;;;;;;;;4952434;29;20122;-77
2021/11/21 02:52:31;;;;;;;4.55;2.65;;;;;;;;;;4951760;29;20122;-76
2021/11/21 02:54:58;;;;;;;2.33;2.22;;;;;;;;;;4952430;29;20138;-76
2021/11/21 02:57:25;;;;;;;3.03;2.92;;;;;;;;;;4933548;28;20061;-77
2021/11/21 02:59:51;;;;;;;2.67;2.58;;;;;;;;;;4952280;28;20109;-78
2021/11/21 03:02:21;;;;;;;4.00;3.80;;;;;;;;;;4955936;29;20464;-76
2021/11/21 03:04:49;;;;;;;3.45;2.97;;;;;;;;;;4956204;29;20129;-75
2021/11/21 03:07:15;;;;;;;2.65;2.55;;;;;;;;;;4955399;29;20105;-76
2021/11/21 03:09:41;;;;;;;2.90;2.80;;;;;;;;;;4955773;28;20035;-76
2021/11/21 03:12:07;;;;;;;5.85;2.58;;;;;;;;;;4955737;29;20047;-76
2021/11/21 03:14:33;;;;;;;2.78;2.60;;;;;;;;;;4955354;29;20036;-74
2021/11/21 03:17:00;;;;;;;2.50;2.40;;;;;;;;;;4956019;29;20105;-75
2021/11/21 03:19:27;;;;;;;2.85;2.65;;;;;;;;;;4936118;29;20039;-76
2021/11/21 03:21:52;;;;;;;2.65;2.55;;;;;;;;;;4954532;29;20058;-77
2021/11/21 03:24:18;;;;;;;2.63;2.42;;;;;;;;;;4955861;29;20074;-76
2021/11/21 03:26:44;;;;;;;3.22;2.47;;;;;;;;;;4955823;29;20047;-76
2021/11/21 03:29:10;;;;;;;2.75;2.63;;;;;;;;;;4954183;28;20050;-76
2021/11/21 03:31:36;;;;;;;2.70;2.55;;;;;;;;;;4955570;29;20140;-76
2021/11/21 03:34:03;;;;;;;3.20;3.10;;;;;;;;;;4955176;29;20122;-77
2021/11/21 03:36:29;;;;;;;2.75;2.65;;;;;;;;;;4954996;29;20043;-76
2021/11/21 03:38:55;;;;;;;2.92;2.83;;;;;;;;;;4955347;28;20054;-77
2021/11/21 03:41:21;;;;;;;3.38;3.17;;;;;;;;;;4952067;29;20126;-76
2021/11/21 03:43:46;;;;;;;2.42;2.33;;;;;;;;;;4954632;29;20075;-76
2021/11/21 03:46:12;;;;;;;3.28;2.95;;;;;;;;;;4955018;29;20097;-80
2021/11/21 03:48:38;;;;;;;4.45;4.25;;;;;;;;;;4953640;28;20471;-77
2021/11/21 03:51:03;;;;;;;3.30;3.10;;;;;;;;;;4936520;29;20051;-75
2021/11/21 03:53:29;;;;;;;3.28;2.97;;;;;;;;;;4953822;29;20119;-76
2021/11/21 03:55:54;;;;;;;3.40;3.20;;;;;;;;;;4954019;29;20039;-76
2021/11/21 03:58:20;;;;;;;3.25;3.08;;;;;;;;;;4954004;28;20047;-76
2021/11/21 04:00:46;;;;;;;2.40;2.30;;;;;;;;;;4954875;29;20456;-76
2021/11/21 04:03:13;;;;;;;3.03;2.92;;;;;;;;;;4952127;29;20157;-76
2021/11/21 04:05:49;;;;;;;2.72;2.63;;;;;;;;;;4954024;29;20063;-78
2021/11/21 04:08:15;;;;;;;2.95;2.85;;;;;;;;;;4955005;28;20049;-77
2021/11/21 04:10:41;;;;;;;3.28;3.17;;;;;;;;;;4954344;28;20067;-77
2021/11/21 04:13:06;;;;;;;3.67;3.53;;;;;;;;;;4954245;29;20096;-75
2021/11/21 04:15:32;;;;;;;3.60;3.47;;;;;;;;;;4937508;29;20047;-77
2021/11/21 04:17:58;;;;;;;3.10;3.00;;;;;;;;;;4954166;28;20122;-75
2021/11/21 04:20:24;;;;;;;3.13;2.88;;;;;;;;;;4954096;29;20504;-76
2021/11/21 04:22:50;;;;;;;2.92;2.83;;;;;;;;;;4954463;29;20058;-78
2021/11/21 04:25:16;;;;;;;3.22;3.03;;;;;;;;;;4952310;29;20054;-75
2021/11/21 04:27:42;;;;;;;3.53;3.33;;;;;;;;;;4953795;28;20517;-77
2021/11/21 04:30:10;;;;;;;2.95;2.85;;;;;;;;;;4954398;29;20074;-75
2021/11/21 04:32:37;;;;;;;3.25;3.15;;;;;;;;;;4954393;29;20043;-77
2021/11/21 04:35:06;;;;;;;2.90;2.78;;;;;;;;;;4936563;29;20046;-77
2021/11/21 04:37:32;;;;;;;3.28;3.08;;;;;;;;;;4954126;28;20051;-75
2021/11/21 04:39:57;;;;;;;3.40;3.25;;;;;;;;;;4953919;29;20050;-76
2021/11/21 04:42:23;;;;;;;2.70;2.50;;;;;;;;;;4954050;29;20102;-76
2021/11/21 04:44:49;;;;;;;2.78;2.67;;;;;;;;;;4953766;29;20420;-75
2021/11/21 04:47:14;;;;;;;2.95;2.85;;;;;;;;;;4950771;29;20178;-75
2021/11/21 04:49:40;;;;;;;2.13;2.03;;;;;;;;;;4953641;28;20281;-77
2021/11/21 04:52:07;;;;;;;11.20;4.10;;;;;;;;;;4953330;29;20039;-76
2021/11/21 04:54:33;;;;;;;3.22;3.03;;;;;;;;;;4953394;29;20134;-76
2021/11/21 04:56:59;;;;;;;2.85;2.65;;;;;;;;;;4952661;29;20098;-76
2021/11/21 04:59:24;;;;;;;3.03;2.85;;;;;;;;;;4952872;28;20050;-76
2021/11/21 05:01:50;;;;;;;2.67;2.58;;;;;;;;;;4953630;29;20126;-76
2021/11/21 05:04:15;;;;;;;4.05;3.78;;;;;;;;;;4953294;29;20094;-76
2021/11/21 05:06:41;;;;;;;2.90;2.80;;;;;;;;;;4953429;29;20561;-76
2021/11/21 05:09:07;;;;;;;3.13;3.03;;;;;;;;;;4950852;28;20047;-76
2021/11/21 05:11:34;;;;;;;3.10;3.00;;;;;;;;;;4953167;29;20074;-75
2021/11/21 05:14:01;;;;;;;3.85;3.72;;;;;;;;;;4935915;29;20404;-77
2021/11/21 05:16:26;;;;;;;2.83;2.63;;;;;;;;;;4953164;29;20043;-76
2021/11/21 05:18:52;;;;;;;2.88;2.78;;;;;;;;;;4953202;28;20591;-76
2021/11/21 05:21:18;;;;;;;2.58;2.47;;;;;;;;;;4953073;29;20043;-76
2021/11/21 05:23:45;;;;;;;2.97;2.88;;;;;;;;;;4953145;28;20507;-77
2021/11/21 05:26:10;;;;;;;2.65;2.55;;;;;;;;;;4952822;29;20051;-76
2021/11/21 05:28:36;;;;;;;2.88;2.67;;;;;;;;;;4952629;28;20142;-74
2021/11/21 05:31:02;;;;;;;2.40;2.30;;;;;;;;;;4950403;29;20047;-75
2021/11/21 05:33:28;;;;;;;2.92;2.75;;;;;;;;;;4953599;29;20035;-75
2021/11/21 05:35:54;;;;;;;2.83;2.67;;;;;;;;;;4952630;29;20066;-75
2021/11/21 05:38:19;;;;;;;4.30;4.10;;;;;;;;;;4953693;28;20432;-75
2021/11/21 05:40:45;;;;;;;2.50;2.40;;;;;;;;;;4953250;29;20092;-75
2021/11/21 05:43:10;;;;;;;3.33;3.15;;;;;;;;;;4953290;29;20195;-75
2021/11/21 05:45:35;;;;;;;1.98;1.88;;;;;;;;;;4953611;29;20405;-75
2021/11/21 05:48:01;;;;;;;2.90;2.80;;;;;;;;;;4953576;28;20075;-74
2021/11/21 05:50:26;;;;;;;3.22;3.03;;;;;;;;;;4953364;29;20044;-75
2021/11/21 05:52:53;;;;;;;3.22;3.03;;;;;;;;;;4950798;29;20500;-76
2021/11/21 05:55:20;;;;;;;3.25;3.05;;;;;;;;;;4936394;29;20069;-75
2021/11/21 05:57:46;;;;;;;2.90;2.78;;;;;;;;;;4953228;28;20641;-74
2021/11/21 06:00:15;;;;;;;1.88;1.77;;;;;;;;;;4953431;29;20159;-74
2021/11/21 06:02:41;;;;;;;3.78;3.47;;;;;;;;;;4953583;29;20053;-74
2021/11/21 06:05:08;;;;;;;3.15;2.95;;;;;;;;;;4952535;29;20130;-74
2021/11/21 06:07:34;;;;;;;2.65;2.55;;;;;;;;;;4953048;28;20416;-75
2021/11/21 06:10:02;;;;;;;2.95;2.83;;;;;;;;;;4953453;29;20039;-75
2021/11/21 06:12:28;;;;;;;3.05;2.95;;;;;;;;;;4952494;29;20051;-76
2021/11/21 06:14:54;;;;;;;2.90;2.63;;;;;;;;;;4932595;29;20461;-75
2021/11/21 06:17:20;;;;;;;3.28;3.10;;;;;;;;;;4953058;29;20043;-77
2021/11/21 06:19:46;;;;;;;3.08;2.88;;;;;;;;;;4952606;28;20055;-76
2021/11/21 06:22:12;;;;;;;2.83;2.72;;;;;;;;;;4935627;29;20043;-75
2021/11/21 06:24:38;;;;;;;3.47;3.28;;;;;;;;;;4953366;29;20043;-77
2021/11/21 06:27:04;;;;;;;2.60;2.50;;;;;;;;;;4952098;29;20410;-76
2021/11/21 06:29:29;;;;;;;3.17;3.08;;;;;;;;;;4953127;28;20055;-75
2021/11/21 06:31:55;;;;;;;3.80;3.60;;;;;;;;;;4953383;29;20062;-76
2021/11/21 06:34:21;;;;;;;3.63;3.42;;;;;;;;;;4952621;28;20098;-75
2021/11/21 06:36:46;;;;;;;2.40;2.30;;;;;;;;;;4953628;29;20417;-76
2021/11/21 06:39:12;;;;;;;1.92;1.83;;;;;;;;;;4956584;28;20424;-76
2021/11/21 06:41:38;;;;;;;4.57;4.30;;;;;;;;;;4956362;29;20043;-76
2021/11/21 06:44:05;;;;;;;3.55;3.35;;;;;;;;;;4956335;29;20047;-75
2021/11/21 06:46:31;;;;;;;3.30;3.10;;;;;;;;;;4956370;29;20416;-77
2021/11/21 06:48:57;;;;;;;3.65;3.42;;;;;;;;;;4954938;28;20102;-75
2021/11/21 06:51:23;;;;;;;3.22;3.10;;;;;;;;;;4956193;29;20358;-75
2021/11/21 06:53:49;;;;;;;5.38;5.07;;;;;;;;;;4956327;29;20469;-78
2021/11/21 06:56:16;;;;;;;3.55;3.35;;;;;;;;;;4952523;29;20072;-76
2021/11/21 06:58:42;;;;;;;3.63;3.10;;;;;;;;;;4956013;28;20062;-76
2021/11/21 07:01:07;;;;;;;3.53;3.33;;;;;;;;;;4939233;29;20039;-75
2021/11/21 07:03:33;;;;;;;4.03;3.83;;;;;;;;;;4955947;29;20073;-78
2021/11/21 07:05:58;;;;;;;3.88;3.60;;;;;;;;;;4952086;29;20067;-75
2021/11/21 07:08:24;;;;;;;3.80;3.50;;;;;;;;;;4954339;28;20039;-76
2021/11/21 07:10:49;;;;;;;3.25;3.05;;;;;;;;;;4955519;29;20043;-77
2021/11/21 07:13:15;;;;;;;3.33;3.13;;;;;;;;;;4940092;29;20071;-76
2021/11/21 07:15:40;;;;;;;2.75;2.65;;;;;;;;;;4936858;29;20047;-76
2021/11/21 07:18:06;;;;;;;3.40;3.20;;;;;;;;;;4925324;29;20066;-76
2021/11/21 07:20:34;;;;;;;3.10;2.90;;;;;;;;;;4954583;29;20134;-75
2021/11/21 07:23:00;;;;;;;3.03;2.92;;;;;;;;;;4955695;29;20058;-75
2021/11/21 07:25:26;;;;;;;3.28;3.08;;;;;;;;;;4955774;29;20043;-76
2021/11/21 07:27:53;;;;;;;3.20;2.90;;;;;;;;;;4955067;28;20086;-76
2021/11/21 07:30:21;;;;;;;5.65;3.20;;;;;;;;;;4948079;29;20058;-76
2021/11/21 07:32:47;;;;;;;3.58;3.35;;;;;;;;;;4946261;29;20043;-74
2021/11/21 07:35:15;;;;;;;2.65;2.55;;;;;;;;;;4955026;29;20047;-76
2021/11/21 07:37:40;;;;;;;3.00;2.85;;;;;;;;;;4955013;28;20492;-76
2021/11/21 07:40:10;;;;;;;3.38;3.22;;;;;;;;;;4955346;29;20062;-76
2021/11/21 07:42:35;;;;;;;3.58;3.38;;;;;;;;;;4935683;29;20040;-75
2021/11/21 07:45:01;;;;;;;3.70;3.42;;;;;;;;;;4954948;28;20057;-75
2021/11/21 07:47:27;;;;;;;3.22;3.13;;;;;;;;;;4940369;29;20046;-74
2021/11/21 07:49:53;;;;;;;3.35;3.15;;;;;;;;;;4936178;28;20048;-75
2021/11/21 07:52:19;;;;;;;3.78;3.00;;;;;;;;;;4942803;29;20122;-75
2021/11/21 07:54:45;;;;;;;4.55;3.47;;;;;;;;;;4937711;29;20047;-74
2021/11/21 07:57:11;;;;;;;3.33;3.03;;;;;;;;;;4912267;29;20050;-76
2021/11/21 07:59:36;;;;;;;3.47;3.28;;;;;;;;;;4938615;28;20052;-76
2021/11/21 08:02:02;;;;;;;1.98;1.83;;;;;;;;;;4918811;29;20425;-77
2021/11/21 08:04:27;;;;;;;3.47;3.28;;;;;;;;;;4948583;29;20513;-75
2021/11/21 08:06:53;;;;;;;3.13;2.92;;;;;;;;;;4938605;29;20086;-78
2021/11/21 08:09:19;;;;;;;3.22;3.03;;;;;;;;;;4939732;28;20146;-75
2021/11/21 08:11:45;;;;;;;3.10;2.90;;;;;;;;;;4934541;29;20036;-75
2021/11/21 08:14:10;;;;;;;3.55;3.25;;;;;;;;;;4937134;29;20052;-74
2021/11/21 08:16:36;;;;;;;3.35;3.08;;;;;;;;;;4935553;29;20040;-72
2021/11/21 08:19:01;;;;;;;5.38;4.88;;;;;;;;;;4935542;29;20457;-73
2021/11/21 08:21:27;;;;;;;3.95;3.70;;;;;;;;;;4935114;29;20047;-76
2021/11/21 08:23:52;;;;;;;3.47;3.28;;;;;;;;;;4935740;29;20048;-76
2021/11/21 08:26:18;;;;;;;3.58;3.38;;;;;;;;;;4947080;29;20046;-75
2021/11/21 08:28:46;;;;;;;3.90;3.50;;;;;;;;;;4946289;28;20529;-76
2021/11/21 08:31:11;;;;;;;3.13;3.03;;;;;;;;;;4934519;29;20070;-75
2021/11/21 08:33:37;;;;;;;3.45;3.25;;;;;;;;;;4935357;29;20576;-76
2021/11/21 08:36:03;;;;;;;7.40;3.22;;;;;;;;;;4935146;29;20083;-75
2021/11/21 08:38:28;;;;;;;2.92;2.83;;;;;;;;;;4934162;29;20054;-75
2021/11/21 08:40:54;;;;;;;3.72;3.05;;;;;;;;;;4935156;29;20039;-75
2021/11/21 08:43:20;;;;;;;2.97;2.78;;;;;;;;;;4935122;29;20135;-76
2021/11/21 08:45:45;;;;;;;3.25;3.05;;;;;;;;;;4934955;29;20043;-75
2021/11/21 08:48:12;;;;;;;2.92;2.80;;;;;;;;;;4934625;29;20146;-76
2021/11/21 08:50:38;;;;;;;3.15;3.00;;;;;;;;;;4933672;29;20485;-76
2021/11/21 08:53:04;;;;;;;4.00;2.80;;;;;;;;;;4931953;29;20126;-75
2021/11/21 08:55:30;;;;;;;3.30;3.13;;;;;;;;;;4934443;29;20043;-76
2021/11/21 08:57:56;;;;;;;5.95;3.90;;;;;;;;;;4932557;29;20047;-76
2021/11/21 09:00:23;;;;;;;3.05;2.85;;;;;;;;;;4932881;29;20050;-75
2021/11/21 09:02:49;;;;;;;4.15;3.75;;;;;;;;;;4945388;29;20122;-76
2021/11/21 09:05:15;;;;;;;3.38;3.00;;;;;;;;;;4936107;29;20039;-77
2021/11/21 09:07:43;;;;;;;3.00;2.80;;;;;;;;;;4953168;28;20054;-75
2021/11/21 09:10:12;;;;;;;3.03;2.83;;;;;;;;;;4953749;29;20050;-76
2021/11/21 09:12:38;;;;;;;3.83;3.38;;;;;;;;;;4953552;29;20079;-75
2021/11/21 09:15:05;;;;;;;8.57;3.83;;;;;;;;;;4953289;29;20081;-75
2021/11/21 09:17:30;;;;;;;5.78;3.15;;;;;;;;;;4950061;29;20043;-76
2021/11/21 09:19:56;;;;;;;3.90;3.60;;;;;;;;;;4944460;28;20131;-77
2021/11/21 09:22:21;;;;;;;4.03;3.28;;;;;;;;;;4936890;29;20417;-75
2021/11/21 09:24:47;;;;;;;3.22;2.95;;;;;;;;;;4934245;29;20047;-75
2021/11/21 09:27:14;;;;;;;5.35;3.22;;;;;;;;;;4944070;29;20099;-75
2021/11/21 09:29:44;;;;;;;5.22;2.83;;;;;;;;;;4935920;29;20058;-75
2021/11/21 09:32:11;;;;;;;4.40;2.65;;;;;;;;;;4953113;29;20117;-77
2021/11/21 09:34:38;;;;;;;6.18;3.83;;;;;;;;;;4953072;29;20050;-77
2021/11/21 09:37:08;;;;;;;3.60;2.83;;;;;;;;;;4952821;29;20063;-76
2021/11/21 09:39:34;;;;;;;2.75;2.55;;;;;;;;;;4951443;28;20096;-75
2021/11/21 09:42:00;;;;;;;7.07;2.28;;;;;;;;;;4952065;29;20039;-75
2021/11/21 09:44:26;;;;;;;3.13;2.92;;;;;;;;;;4953337;29;20051;-75
2021/11/21 09:46:52;;;;;;;4.72;2.67;;;;;;;;;;4952960;29;20101;-75
2021/11/21 09:49:19;;;;;;;4.13;3.15;;;;;;;;;;4936110;29;20057;-76
2021/11/21 09:51:45;;;;;;;3.20;2.97;;;;;;;;;;4952741;29;20031;-74
2021/11/21 09:54:11;;;;;;;2.65;2.53;;;;;;;;;;4953274;29;20050;-75
2021/11/21 09:56:37;;;;;;;4.80;3.22;;;;;;;;;;4952891;29;20121;-75
2021/11/21 09:59:03;;;;;;;15.07;3.17;;;;;;;;;;4935324;29;20134;-77
2021/11/21 10:01:37;;;;;;;4.03;3.05;;;;;;;;;;4952793;29;20043;-75
2021/11/21 10:04:03;;;;;;;4.28;2.70;;;;;;;;;;4951474;29;20039;-76
2021/11/21 10:06:35;;;;;;;9.23;4.20;;;;;;;;;;4952867;29;20043;-75
2021/11/21 10:09:01;;;;;;;3.80;3.55;;;;;;;;;;4954106;28;20042;-75
2021/11/21 10:11:26;;;;;;;4.47;3.08;;;;;;;;;;4957177;29;20043;-75
2021/11/21 10:13:55;;;;;;;2.65;2.28;;;;;;;;;;4956577;29;20405;-75
2021/11/21 10:16:30;;;;;;;3.55;2.92;;;;;;;;;;4939372;29;20050;-76
2021/11/21 10:19:02;;;;;;;6.57;3.53;;;;;;;;;;4938801;29;20074;-77
2021/11/21 10:21:36;;;;;;;10.52;3.35;;;;;;;;;;4939442;29;20043;-74
2021/11/21 10:24:27;;;;;;;5.60;3.53;;;;;;;;;;4920862;29;20421;-75
2021/11/21 10:27:11;;;;;;;3.95;3.60;;;;;;;;;;4932794;29;20054;-76
2021/11/21 10:29:42;;;;;;;3.70;3.50;;;;;;;;;;4937375;29;20189;-75
2021/11/21 10:32:20;;;;;;;3.72;3.33;;;;;;;;;;4937356;29;20039;-74
2021/11/21 10:34:57;;;;;;;3.60;3.03;;;;;;;;;;4937610;29;20063;-75
2021/11/21 10:37:36;;;;;;;3.33;3.03;;;;;;;;;;4935809;29;20043;-76
2021/11/21 10:40:13;;;;;;;3.47;2.83;;;;;;;;;;4937195;29;20061;-77
2021/11/21 10:42:43;;;;;;;3.13;3.03;;;;;;;;;;4934755;29;20662;-75
2021/11/21 10:45:11;;;;;;;11.50;3.63;;;;;;;;;;4936745;29;20042;-76
2021/11/21 10:47:53;;;;;;;15.57;4.15;;;;;;;;;;4935761;29;20191;-74
2021/11/21 10:50:30;;;;;;;5.65;3.05;;;;;;;;;;4934923;29;20074;-77
2021/11/21 10:52:58;;;;;;;5.05;2.95;;;;;;;;;;4935703;29;20039;-75
2021/11/21 10:55:23;;;;;;;7.18;2.92;;;;;;;;;;4937341;29;20040;-77
2021/11/21 10:57:49;;;;;;;2.97;2.80;;;;;;;;;;4936341;29;20365;-74
2021/11/21 11:00:17;;;;;;;3.55;3.35;;;;;;;;;;4936567;29;20054;-74
2021/11/21 11:02:44;;;;;;;3.08;2.88;;;;;;;;;;4935680;29;20043;-74
2021/11/21 11:05:11;;;;;;;5.22;3.03;;;;;;;;;;4936277;29;20048;-74
2021/11/21 11:07:42;;;;;;;7.25;3.08;;;;;;;;;;4935529;29;20043;-75
2021/11/21 11:10:15;;;;;;;3.05;2.78;;;;;;;;;;4935428;29;20044;-75
2021/11/21 11:12:42;;;;;;;4.10;3.72;;;;;;;;;;4935078;29;20044;-75
2021/11/21 11:15:08;;;;;;;4.03;3.45;;;;;;;;;;4941527;29;20572;-74
2021/11/21 11:17:35;;;;;;;3.70;3.22;;;;;;;;;;4955620;28;20046;-76
2021/11/21 11:20:05;;;;;;;3.20;2.85;;;;;;;;;;4950517;29;20075;-74
2021/11/21 11:22:31;;;;;;;4.25;3.83;;;;;;;;;;4935976;29;20050;-75
2021/11/21 11:25:00;;;;;;;5.40;3.10;;;;;;;;;;4936745;29;20040;-74
2021/11/21 11:28:08;;;;;;;3.53;3.22;;;;;;;;;;4935823;29;20080;-75
2021/11/21 11:30:36;;;;;;;10.30;1.95;;;;;;;;;;4926941;29;20050;-74
2021/11/21 11:33:05;;;;;;;5.82;2.95;;;;;;;;;;4935985;29;20047;-75
2021/11/21 11:35:33;;;;;;;3.08;2.88;;;;;;;;;;4934794;29;20039;-75
2021/11/21 11:38:09;;;;;;;2.95;2.75;;;;;;;;;;4933586;29;20131;-76
2021/11/21 11:40:41;;;;;;;5.03;4.72;;;;;;;;;;4935426;29;20039;-77
2021/11/21 11:43:15;;;;;;;3.17;2.88;;;;;;;;;;4935217;29;20130;-75
2021/11/21 11:45:47;;;;;;;5.15;3.40;;;;;;;;;;4935257;29;20046;-76
2021/11/21 11:48:31;;;;;;;4.28;3.03;;;;;;;;;;4933430;29;20044;-76
2021/11/21 11:50:58;;;;;;;4.90;3.28;;;;;;;;;;4935897;29;20408;-76
2021/11/21 11:53:33;;;;;;;3.33;2.88;;;;;;;;;;4919092;29;20047;-77
2021/11/21 11:56:17;;;;;;;6.63;3.22;;;;;;;;;;4935375;29;20528;-73
2021/11/21 11:58:59;;;;;;;4.00;3.28;;;;;;;;;;4935891;29;20058;-74
2021/11/21 12:01:40;;;;;;;6.50;3.30;;;;;;;;;;4932888;29;20055;-73
2021/11/21 12:04:09;;;;;;;5.03;4.57;;;;;;;;;;4935018;29;20126;-75
2021/11/21 12:06:42;;;;;;;4.05;3.75;;;;;;;;;;4935710;29;20082;-74
2021/11/21 12:09:22;;;;;;;4.32;3.67;;;;;;;;;;4935437;29;20355;-77
2021/11/21 12:11:59;;;;;;;3.70;3.40;;;;;;;;;;4935001;29;20044;-77
2021/11/21 12:14:40;;;;;;;5.60;2.92;;;;;;;;;;4920022;29;20035;-77
2021/11/21 12:17:11;;;;;;;7.38;3.58;;;;;;;;;;4917761;29;20039;-73
2021/11/21 12:19:42;;;;;;;3.58;3.13;;;;;;;;;;4927237;29;20047;-77
2021/11/21 12:22:25;;;;;;;7.55;3.75;;;;;;;;;;4932680;29;20050;-75
2021/11/21 12:25:10;;;;;;;4.07;3.58;;;;;;;;;;4935538;29;20044;-75
2021/11/21 12:27:53;;;;;;;6.32;3.35;;;;;;;;;;4934512;29;20070;-75
2021/11/21 12:30:27;;;;;;;3.05;2.88;;;;;;;;;;4935020;29;20078;-76
2021/11/21 12:32:58;;;;;;;4.65;3.03;;;;;;;;;;4954002;28;20512;-76
2021/11/21 12:35:33;;;;;;;3.80;3.55;;;;;;;;;;4953025;29;20054;-76
2021/11/21 12:38:04;;;;;;;3.80;3.60;;;;;;;;;;4952254;28;20043;-76
2021/11/21 12:40:46;;;;;;;4.97;3.83;;;;;;;;;;4953169;29;20062;-75
2021/11/21 12:43:14;;;;;;;3.20;3.00;;;;;;;;;;4953373;29;20141;-75
2021/11/21 12:46:05;;;;;;;3.25;3.08;;;;;;;;;;4948485;29;20043;-77
2021/11/21 12:48:31;;;;;;;3.20;3.00;;;;;;;;;;4952495;28;20039;-76
2021/11/21 12:51:03;;;;;;;12.25;3.45;;;;;;;;;;4934781;29;20126;-74
2021/11/21 12:53:32;;;;;;;7.13;3.75;;;;;;;;;;4952606;29;20039;-75
2021/11/21 12:56:12;;;;;;;5.38;3.97;;;;;;;;;;4953130;29;20519;-75
2021/11/21 12:58:40;;;;;;;4.93;3.53;;;;;;;;;;4951228;28;20416;-74
2021/11/21 13:01:15;;;;;;;3.15;2.95;;;;;;;;;;4939138;29;20057;-78
2021/11/21 13:03:41;;;;;;;5.35;3.15;;;;;;;;;;4938044;29;20049;-72
2021/11/21 13:06:15;;;;;;;3.17;2.97;;;;;;;;;;4914098;29;20047;-74
2021/11/21 13:08:42;;;;;;;3.90;3.20;;;;;;;;;;4944427;28;20050;-73
2021/11/21 13:11:14;;;;;;;4.47;3.90;;;;;;;;;;4952594;29;20047;-74
2021/11/21 13:13:51;;;;;;;3.22;3.03;;;;;;;;;;4953241;29;20042;-75
2021/11/21 13:16:22;;;;;;;5.00;2.22;;;;;;;;;;4935678;29;20520;-73
2021/11/21 13:18:49;;;;;;;2.97;2.78;;;;;;;;;;4952863;28;20054;-76
2021/11/21 13:21:33;;;;;;;3.38;3.17;;;;;;;;;;4952058;29;20075;-75
2021/11/21 13:24:06;;;;;;;4.00;3.80;;;;;;;;;;4952586;29;20106;-75
2021/11/21 13:26:32;;;;;;;4.05;3.85;;;;;;;;;;4935694;29;20145;-75
2021/11/21 13:29:03;;;;;;;3.92;3.65;;;;;;;;;;4951616;28;20210;-75
2021/11/21 13:31:37;;;;;;;5.57;3.70;;;;;;;;;;4934738;29;20410;-76
2021/11/21 13:34:08;;;;;;;4.57;3.50;;;;;;;;;;4953184;29;20039;-75
2021/11/21 13:36:48;;;;;;;3.55;3.25;;;;;;;;;;4953547;29;20043;-75
2021/11/21 13:39:25;;;;;;;4.13;3.60;;;;;;;;;;4952708;28;20059;-74
2021/11/21 13:42:03;;;;;;;3.10;2.92;;;;;;;;;;4935573;29;20050;-73
2021/11/21 13:44:32;;;;;;;5.90;3.45;;;;;;;;;;4952528;28;20099;-75
2021/11/21 13:47:00;;;;;;;3.08;2.95;;;;;;;;;;4952773;29;20107;-76
2021/11/21 13:49:28;;;;;;;2.95;2.75;;;;;;;;;;4952906;28;20051;-75
2021/11/21 13:52:06;;;;;;;3.40;3.15;;;;;;;;;;4952821;29;20071;-76
2021/11/21 13:54:34;;;;;;;3.05;2.85;;;;;;;;;;4951225;29;20097;-76
2021/11/21 13:57:00;;;;;;;2.97;2.78;;;;;;;;;;4952727;29;20043;-76
2021/11/21 13:59:26;;;;;;;3.15;2.92;;;;;;;;;;4952927;28;20049;-77
2021/11/21 14:01:54;;;;;;;3.30;3.10;;;;;;;;;;4952269;29;20210;-75
2021/11/21 14:04:30;;;;;;;5.13;3.35;;;;;;;;;;4952519;29;20043;-77
2021/11/21 14:07:05;;;;;;;3.35;3.15;;;;;;;;;;4935555;29;20035;-75
2021/11/21 14:09:32;;;;;;;3.67;3.47;;;;;;;;;;4952223;28;20456;-76
2021/11/21 14:12:02;;;;;;;5.68;3.35;;;;;;;;;;4952991;29;20061;-74
2021/11/21 14:14:32;;;;;;;3.53;3.30;;;;;;;;;;4952879;29;20114;-72
2021/11/21 14:16:58;;;;;;;5.07;4.78;;;;;;;;;;4932163;29;20453;-73
2021/11/21 14:19:31;;;;;;;3.60;3.38;;;;;;;;;;4952706;28;20054;-75
2021/11/21 14:22:14;;;;;;;5.40;4.05;;;;;;;;;;4913404;29;20079;-74
2021/11/21 14:24:42;;;;;;;4.35;4.00;;;;;;;;;;4912802;29;20048;-76
2021/11/21 14:27:13;;;;;;;3.53;3.22;;;;;;;;;;4914547;29;20044;-77
2021/11/21 14:29:40;;;;;;;7.63;3.05;;;;;;;;;;4914399;29;20051;-74
2021/11/21 14:32:11;;;;;;;4.03;3.72;;;;;;;;;;4914488;29;20048;-75
2021/11/21 14:34:37;;;;;;;4.15;3.55;;;;;;;;;;4914772;29;20092;-74
2021/11/21 14:37:08;;;;;;;5.03;4.72;;;;;;;;;;4914173;29;20460;-73
2021/11/21 14:39:34;;;;;;;4.03;3.80;;;;;;;;;;4910963;29;20142;-74
2021/11/21 14:42:10;;;;;;;5.45;3.17;;;;;;;;;;4913930;29;20118;-75
2021/11/21 14:44:37;;;;;;;3.63;3.22;;;;;;;;;;4914320;29;20048;-75
2021/11/21 14:47:05;;;;;;;3.78;3.15;;;;;;;;;;4912866;29;20045;-75
2021/11/21 14:49:33;;;;;;;4.85;4.50;;;;;;;;;;4913996;29;20378;-76
2021/11/21 14:51:59;;;;;;;3.58;3.08;;;;;;;;;;4914513;29;20047;-74